aviador You're here:

EPRZ Decoded Metar

RZESZOW in POLAND
Report Time2018-06-23 12:00:00
UTC Time2018-06-23 12:12:25
Flight Rules vfr VFR
Wind030° at 09 kt
W.Decomp.*RWY 09: 3.8 kt HW 8.2 kt LCW
W.Rank030° ranks 27
Current wind is above 030° avg. (5.0)
Visibility9999 m
Phenomena:Light Thuderstorm Rain
Clouds:Broken CB 030 Hf
Expected CloudBase > 400 ft AGL from Temp-Dew spread
Ceiling3,000 ft
Temp09°C (ISA -5)
Dew Point08°C (94% RH)
AAT5.3°C
QNH1016 hPa
Density Alt148 ft
Elevation663 ft
Report Wrong Elevation
Raw Report
EPRZ 231200Z 03009KT 9999 -TSRA BKN030CB 09/08 Q1016 RESHRA=

Extra information for EPRZ:More info

Metar Taf Metar & Taf Last 4 Metars F.Rules Stats Wind Profile Meteogram Temp Stats Airport Information Weather charts Add Link Nearby VenuesMetar ALERT Operation Metar Decoded Social comments